Time;durP1;ratioP1;P1;durP2;ratioP2;P2;SDS_P1;SDS_P2;PMS_P1;PMS_P2;Temp;Humidity;BMP_temperature;BMP_pressure;BME280_temperature;BME280_humidity;BME280_pressure;Samples;Min_cycle;Max_cycle;Signal;HPM_P1;HPM_P2
2022/06/18 00:01:33;;;;;;;;;;;;;;;18.12;100.00;99358.47;5050998;28;20295;-84
2022/06/18 00:04:01;;;;;;;;;;;;;;;17.81;100.00;99367.03;5013693;28;20007;-84
2022/06/18 00:06:29;;;;;;;;;;;;;;;17.62;100.00;99359.72;5061224;28;19929;-83
2022/06/18 00:08:56;;;;;;;;;;;;;;;18.19;100.00;99364.63;5039975;28;19925;-84
2022/06/18 00:14:10;;;;;;;;;;;;;;;17.79;100.00;99361.84;5036618;28;19925;-84
2022/06/18 00:16:37;;;;;;;;;;;;;;;17.59;100.00;99355.00;5043378;28;19924;-84
2022/06/18 00:19:05;;;;;;;;;;;;;;;17.57;100.00;99349.81;5056282;28;19925;-84
2022/06/18 00:21:32;;;;;;;;;;;;;;;18.02;100.00;99369.00;5006100;28;19936;-84
2022/06/18 00:23:59;;;;;;;;;;;;;;;18.35;100.00;99360.75;5052901;28;19947;-84
2022/06/18 00:26:26;;;;;;;;;;;;;;;18.13;100.00;99352.38;5023380;28;19975;-84
2022/06/18 00:28:53;;;;;;;;;;;;;;;18.15;100.00;99334.94;5053058;28;19929;-84
2022/06/18 00:31:23;;;;;;;;;;;;;;;18.32;100.00;99334.19;5037087;28;19968;-84
2022/06/18 00:33:50;;;;;;;;;;;;;;;18.21;100.00;99333.84;5033023;28;20020;-85
2022/06/18 00:36:18;;;;;;;;;;;;;;;18.07;100.00;99342.16;5016048;28;20020;-84
2022/06/18 00:38:47;;;;;;;;;;;;;;;18.20;100.00;99346.44;5000104;28;20012;-84
2022/06/18 00:41:17;;;;;;;;;;;;;;;18.08;100.00;99336.03;5051780;28;19956;-84
2022/06/18 00:43:58;;;;;;;;;;;;;;;18.10;100.00;99344.81;5035894;28;19932;-84
2022/06/18 00:46:45;;;;;;;;;;;;;;;17.96;100.00;99346.19;5052206;28;19925;-84
2022/06/18 00:49:16;;;;;;;;;;;;;;;18.05;100.00;99351.09;5003997;28;19933;-84
2022/06/18 00:51:49;;;;;;;;;;;;;;;18.68;100.00;99351.22;5005954;28;19952;-84
2022/06/18 00:54:21;;;;;;;;;;;;;;;18.24;100.00;99344.22;5019066;28;19925;-84
2022/06/18 00:56:56;;;;;;;;;;;;;;;18.48;100.00;99348.06;5035387;28;19925;-84
2022/06/18 00:59:29;;;;;;;;;;;;;;;18.72;100.00;99336.91;5048846;28;19925;-84
2022/06/18 01:01:56;;;;;;;;;;;;;;;18.52;100.00;99339.44;5055752;28;19982;-84
2022/06/18 01:04:23;;;;;;;;;;;;;;;18.60;100.00;99352.00;5036025;28;19925;-84
2022/06/18 01:06:56;;;;;;;;;;;;;;;18.28;100.00;99355.41;5022365;28;19974;-84
2022/06/18 01:09:23;;;;;;;;;;;;;;;18.62;100.00;99353.09;5054753;28;19932;-84
2022/06/18 01:11:50;;;;;;;;;;;;;;;17.80;100.00;99345.66;5035404;28;19926;-84
2022/06/18 01:14:18;;;;;;;;;;;;;;;17.71;100.00;99346.44;5006673;28;19932;-84
2022/06/18 01:16:47;;;;;;;;;;;;;;;18.15;100.00;99341.38;5051276;28;19964;-84
2022/06/18 01:19:27;;;;;;;;;;;;;;;18.66;100.00;99345.22;5052007;28;19975;-84
2022/06/18 01:22:06;;;;;;;;;;;;;;;18.19;100.00;99344.84;5035158;28;19925;-84
2022/06/18 01:24:38;;;;;;;;;;;;;;;18.40;100.00;99351.66;5035146;28;20403;-84
2022/06/18 01:27:08;;;;;;;;;;;;;;;17.83;100.00;99358.88;5019213;28;19925;-84
2022/06/18 01:29:37;;;;;;;;;;;;;;;18.25;100.00;99348.63;5035840;28;19925;-85
2022/06/18 01:32:06;;;;;;;;;;;;;;;17.64;100.00;99349.56;5018582;28;19926;-84
2022/06/18 01:34:34;;;;;;;;;;;;;;;17.33;100.00;99353.56;5035084;28;19932;-84
2022/06/18 01:37:03;;;;;;;;;;;;;;;18.00;100.00;99340.41;5017969;28;19925;-84
2022/06/18 01:39:33;;;;;;;;;;;;;;;18.38;100.00;99338.00;5068435;28;20026;-84
2022/06/18 01:42:03;;;;;;;;;;;;;;;18.70;100.00;99328.91;5050767;28;19932;-85
2022/06/18 01:44:53;;;;;;;;;;;;;;;18.58;100.00;99331.88;5018436;28;20024;-85
2022/06/18 01:47:48;;;;;;;;;;;;;;;18.50;100.00;99334.25;5034867;28;19925;-84
2022/06/18 01:50:15;;;;;;;;;;;;;;;18.35;100.00;99347.41;5041586;28;20633;-84
2022/06/18 01:52:50;;;;;;;;;;;;;;;18.71;100.00;99338.16;5035403;28;19938;-85
2022/06/18 01:55:22;;;;;;;;;;;;;;;18.35;100.00;99338.13;5035553;28;19925;-85
2022/06/18 01:57:53;;;;;;;;;;;;;;;17.78;100.00;99331.22;5051116;28;19965;-85
2022/06/18 02:00:23;;;;;;;;;;;;;;;17.60;100.00;99342.44;5017729;28;19925;-84
2022/06/18 02:02:59;;;;;;;;;;;;;;;17.89;100.00;99334.38;5051228;28;19932;-84
2022/06/18 02:05:27;;;;;;;;;;;;;;;17.36;100.00;99330.84;5035449;28;19925;-84
2022/06/18 02:07:56;;;;;;;;;;;;;;;17.64;100.00;99329.78;5034725;28;19925;-84
2022/06/18 02:10:37;;;;;;;;;;;;;;;17.57;100.00;99344.16;5034374;28;19979;-84
2022/06/18 02:13:04;;;;;;;;;;;;;;;17.61;100.00;99352.50;5017617;28;19925;-83
2022/06/18 02:15:38;;;;;;;;;;;;;;;17.66;100.00;99360.38;5017626;28;20023;-84
2022/06/18 02:18:06;;;;;;;;;;;;;;;17.30;100.00;99348.84;5035085;28;19933;-83
2022/06/18 02:20:41;;;;;;;;;;;;;;;17.65;100.00;99353.94;5034481;28;19969;-84
2022/06/18 02:23:08;;;;;;;;;;;;;;;17.52;100.00;99349.63;5036039;28;19963;-84
2022/06/18 02:25:36;;;;;;;;;;;;;;;17.25;100.00;99347.41;5011383;28;19932;-85
2022/06/18 02:28:11;;;;;;;;;;;;;;;17.85;100.00;99353.53;5039497;28;20287;-85
2022/06/18 02:30:39;;;;;;;;;;;;;;;18.09;100.00;99357.38;5037472;28;19939;-84
2022/06/18 02:33:06;;;;;;;;;;;;;;;18.01;100.00;99353.28;5051549;28;20288;-84
2022/06/18 02:35:33;;;;;;;;;;;;;;;17.83;100.00;99358.88;5017334;28;19925;-84
2022/06/18 02:38:00;;;;;;;;;;;;;;;17.80;100.00;99352.13;5050252;28;19932;-84
2022/06/18 02:40:29;;;;;;;;;;;;;;;18.05;100.00;99356.75;5067069;28;19925;-84
2022/06/18 02:42:58;;;;;;;;;;;;;;;17.77;100.00;99338.13;5049931;28;20032;-84
2022/06/18 02:45:28;;;;;;;;;;;;;;;18.07;100.00;99333.66;5016950;28;19925;-84
2022/06/18 02:47:59;;;;;;;;;;;;;;;18.19;100.00;99347.66;5065915;28;19925;-85
2022/06/18 02:50:28;;;;;;;;;;;;;;;18.08;100.00;99347.34;5050146;28;20380;-84
2022/06/18 02:53:00;;;;;;;;;;;;;;;18.22;100.00;99358.03;5036194;28;19925;-84
2022/06/18 02:55:31;;;;;;;;;;;;;;;18.38;100.00;99357.81;5053801;28;20035;-84
2022/06/18 02:58:07;;;;;;;;;;;;;;;18.28;100.00;99367.47;5013472;28;19956;-84
2022/06/18 03:00:37;;;;;;;;;;;;;;;18.09;100.00;99380.00;4997204;28;19931;-84
2022/06/18 03:03:08;;;;;;;;;;;;;;;17.95;100.00;99384.22;5013917;28;19925;-84
2022/06/18 03:05:36;;;;;;;;;;;;;;;18.01;100.00;99384.38;5052188;28;19932;-84
2022/06/18 03:08:04;;;;;;;;;;;;;;;17.99;100.00;99372.75;5008453;28;19925;-84
2022/06/18 03:13:19;;;;;;;;;;;;;;;17.84;100.00;99385.91;5032926;28;19925;-84
2022/06/18 03:15:49;;;;;;;;;;;;;;;18.00;100.00;99391.28;5049453;28;19986;-84
2022/06/18 03:18:18;;;;;;;;;;;;;;;17.41;100.00;99372.63;5049776;28;19931;-84
2022/06/18 03:20:48;;;;;;;;;;;;;;;17.06;100.00;99387.28;5015299;28;19925;-84
2022/06/18 03:23:18;;;;;;;;;;;;;;;17.02;100.00;99390.25;5049621;28;19964;-84
2022/06/18 03:25:45;;;;;;;;;;;;;;;17.15;100.00;99387.34;5049078;28;19988;-84
2022/06/18 03:28:13;;;;;;;;;;;;;;;17.01;100.00;99394.31;5029194;28;19925;-84
2022/06/18 03:30:41;;;;;;;;;;;;;;;16.42;100.00;99407.72;5017166;28;19925;-83
2022/06/18 03:33:09;;;;;;;;;;;;;;;17.18;100.00;99403.38;5032763;28;19932;-83
2022/06/18 03:35:38;;;;;;;;;;;;;;;16.37;100.00;99411.09;5023375;28;19932;-84
2022/06/18 03:38:05;;;;;;;;;;;;;;;16.23;100.00;99412.34;5032431;28;19925;-84
2022/06/18 03:40:32;;;;;;;;;;;;;;;16.37;100.00;99419.56;5016100;28;19979;-84
2022/06/18 03:42:59;;;;;;;;;;;;;;;16.40;100.00;99410.97;5033995;28;19971;-81
2022/06/18 03:45:28;;;;;;;;;;;;;;;15.56;100.00;99417.31;5044365;28;19932;-81
2022/06/18 03:47:56;;;;;;;;;;;;;;;15.77;100.00;99408.22;5013432;28;19929;-82
2022/06/18 03:50:25;;;;;;;;;;;;;;;15.63;100.00;99425.53;5025552;28;21299;-82
2022/06/18 03:52:52;;;;;;;;;;;;;;;15.78;100.00;99421.03;5032789;28;20403;-80
2022/06/18 03:55:19;;;;;;;;;;;;;;;15.53;100.00;99404.13;5026287;28;20380;-81
2022/06/18 03:57:47;;;;;;;;;;;;;;;15.25;100.00;99421.06;5028687;28;20279;-80
2022/06/18 04:00:19;;;;;;;;;;;;;;;15.18;100.00;99422.03;5051819;28;19925;-81
2022/06/18 04:02:53;;;;;;;;;;;;;;;15.12;100.00;99440.72;5064449;28;19929;-80
2022/06/18 04:05:20;;;;;;;;;;;;;;;15.85;100.00;99425.69;5048106;28;19929;-82
2022/06/18 04:07:47;;;;;;;;;;;;;;;15.52;100.00;99416.66;5016167;28;19965;-81
2022/06/18 04:10:25;;;;;;;;;;;;;;;15.76;100.00;99417.91;5016221;28;20383;-81
2022/06/18 04:12:53;;;;;;;;;;;;;;;15.27;100.00;99422.19;5032807;28;19935;-81
2022/06/18 04:15:43;;;;;;;;;;;;;;;15.47;100.00;99417.19;5028948;28;20375;-81
2022/06/18 04:18:19;;;;;;;;;;;;;;;15.57;100.00;99410.44;5017201;28;19925;-81
2022/06/18 04:20:46;;;;;;;;;;;;;;;15.86;100.00;99410.34;5069022;28;19961;-81
2022/06/18 04:23:15;;;;;;;;;;;;;;;15.20;100.00;99411.13;5069460;28;19925;-81
2022/06/18 04:25:44;;;;;;;;;;;;;;;15.02;100.00;99412.88;5049411;28;20969;-81
2022/06/18 04:28:13;;;;;;;;;;;;;;;15.53;100.00;99409.75;5032260;28;20314;-81
2022/06/18 04:30:44;;;;;;;;;;;;;;;15.87;100.00;99401.44;5024006;28;20016;-81
2022/06/18 04:33:21;;;;;;;;;;;;;;;15.60;100.00;99409.53;5035692;28;19925;-81
2022/06/18 04:36:18;;;;;;;;;;;;;;;15.17;100.00;99409.22;5035973;28;20023;-80
2022/06/18 04:38:46;;;;;;;;;;;;;;;15.27;100.00;99412.94;5000599;28;19925;-81
2022/06/18 04:41:39;;;;;;;;;;;;;;;15.31;100.00;99422.09;5030153;28;19948;-81
2022/06/18 04:44:14;;;;;;;;;;;;;;;15.12;100.00;99412.56;5031440;28;19984;-81
2022/06/18 04:46:46;;;;;;;;;;;;;;;15.06;100.00;99411.53;5032574;28;20455;-81
2022/06/18 04:49:14;;;;;;;;;;;;;;;15.62;100.00;99407.06;5051046;28;20414;-81
2022/06/18 04:51:41;;;;;;;;;;;;;;;15.49;100.00;99409.09;5021139;28;19956;-81
2022/06/18 04:54:10;;;;;;;;;;;;;;;15.41;100.00;99407.72;5039012;28;20449;-81
2022/06/18 04:56:37;;;;;;;;;;;;;;;15.32;100.00;99404.75;5039737;28;19925;-81
2022/06/18 04:59:04;;;;;;;;;;;;;;;15.11;100.00;99415.81;5029347;28;19925;-81
2022/06/18 05:01:32;;;;;;;;;;;;;;;15.24;100.00;99403.38;5018827;28;20324;-81
2022/06/18 05:04:08;;;;;;;;;;;;;;;14.79;100.00;99413.09;5019354;28;20299;-81
2022/06/18 05:06:59;;;;;;;;;;;;;;;14.86;100.00;99410.88;5035847;28;20335;-81
2022/06/18 05:09:49;;;;;;;;;;;;;;;15.21;100.00;99400.66;5026321;28;19996;-81
2022/06/18 05:12:19;;;;;;;;;;;;;;;15.38;100.00;99400.16;5022605;28;19932;-81
2022/06/18 05:15:05;;;;;;;;;;;;;;;14.75;100.00;99404.00;5022512;28;19936;-81
2022/06/18 05:17:34;;;;;;;;;;;;;;;14.98;100.00;99396.09;5038715;28;20398;-81
2022/06/18 05:20:05;;;;;;;;;;;;;;;15.18;100.00;99416.41;5023339;28;19932;-81
2022/06/18 05:22:36;;;;;;;;;;;;;;;15.14;100.00;99409.31;5019104;28;20391;-81
2022/06/18 05:25:06;;;;;;;;;;;;;;;15.06;100.00;99403.09;5021374;28;20298;-81
2022/06/18 05:27:34;;;;;;;;;;;;;;;15.05;100.00;99395.91;5055284;28;20383;-82
2022/06/18 05:30:21;;;;;;;;;;;;;;;15.18;100.00;99401.53;5024572;28;19925;-81
2022/06/18 05:32:49;;;;;;;;;;;;;;;15.71;100.00;99397.94;5026307;28;19933;-83
2022/06/18 05:35:17;;;;;;;;;;;;;;;15.50;100.00;99416.28;5018979;28;20032;-82
2022/06/18 05:37:47;;;;;;;;;;;;;;;15.14;100.00;99424.19;5002838;28;19932;-81
2022/06/18 05:40:14;;;;;;;;;;;;;;;15.42;100.00;99414.91;5002518;28;19925;-82
2022/06/18 05:42:42;;;;;;;;;;;;;;;15.43;100.00;99410.09;5026662;28;20277;-83
2022/06/18 05:45:10;;;;;;;;;;;;;;;15.42;100.00;99411.34;5053942;28;20024;-83
2022/06/18 05:47:38;;;;;;;;;;;;;;;15.15;100.00;99422.94;5068353;28;19964;-83
2022/06/18 05:50:06;;;;;;;;;;;;;;;15.19;100.00;99409.53;5040579;28;19933;-83
2022/06/18 05:52:36;;;;;;;;;;;;;;;15.39;100.00;99412.19;5005932;28;20371;-83
2022/06/18 05:55:15;;;;;;;;;;;;;;;14.95;100.00;99430.72;5019996;28;20009;-82
2022/06/18 05:58:09;;;;;;;;;;;;;;;14.95;100.00;99422.28;5003626;28;19932;-83
2022/06/18 06:00:43;;;;;;;;;;;;;;;15.09;100.00;99419.09;5031788;28;20013;-83
2022/06/18 06:03:10;;;;;;;;;;;;;;;14.53;100.00;99409.38;5018263;28;19925;-82
2022/06/18 06:05:38;;;;;;;;;;;;;;;15.02;100.00;99413.66;5032886;28;19932;-82
2022/06/18 06:08:06;;;;;;;;;;;;;;;15.67;100.00;99414.97;5020543;28;19929;-83
2022/06/18 06:13:24;;;;;;;;;;;;;;;15.81;100.00;99422.19;5035701;28;19928;-84
2022/06/18 06:15:52;;;;;;;;;;;;;;;15.55;100.00;99421.38;5061039;28;19939;-78
2022/06/18 06:18:24;;;;;;;;;;;;;;;15.09;100.00;99440.81;5019193;28;19925;-82
2022/06/18 06:20:52;;;;;;;;;;;;;;;15.43;100.00;99439.03;5017145;28;19924;-81
2022/06/18 06:23:20;;;;;;;;;;;;;;;15.15;100.00;99448.25;5016234;28;19925;-82
2022/06/18 06:25:48;;;;;;;;;;;;;;;15.25;100.00;99449.97;5056207;28;19925;-81
2022/06/18 06:28:20;;;;;;;;;;;;;;;15.10;100.00;99460.06;5004240;28;19974;-81
2022/06/18 06:30:47;;;;;;;;;;;;;;;15.13;100.00;99450.72;5020875;28;19932;-81
2022/06/18 06:33:14;;;;;;;;;;;;;;;14.58;100.00;99461.50;5030675;28;19964;-81
2022/06/18 06:35:43;;;;;;;;;;;;;;;15.12;100.00;99463.22;5063056;28;20437;-81
2022/06/18 06:38:10;;;;;;;;;;;;;;;15.09;100.00;99463.31;5036403;28;19929;-81
2022/06/18 06:40:38;;;;;;;;;;;;;;;15.15;100.00;99467.16;5018814;28;19925;-80
2022/06/18 06:43:07;;;;;;;;;;;;;;;15.23;100.00;99475.00;5020314;28;19929;-80
2022/06/18 06:45:35;;;;;;;;;;;;;;;15.83;100.00;99462.75;5046430;28;20397;-81
2022/06/18 06:48:03;;;;;;;;;;;;;;;16.03;100.00;99468.97;5057234;28;19924;-81
2022/06/18 06:50:45;;;;;;;;;;;;;;;15.92;100.00;99473.34;4994927;28;19982;-82
2022/06/18 06:53:14;;;;;;;;;;;;;;;16.13;100.00;99467.84;5054906;28;19925;-82
2022/06/18 07:00:13;;;;;;;;;;;;;;;16.43;100.00;99441.09;4963910;28;19941;-81
2022/06/18 07:02:43;;;;;;;;;;;;;;;16.80;100.00;99428.16;4945427;28;19930;-82
2022/06/18 07:05:17;;;;;;;;;;;;;;;16.09;100.00;99439.00;4941060;28;19941;-81
2022/06/18 07:07:46;;;;;;;;;;;;;;;15.69;100.00;99443.47;4973630;28;19926;-81
2022/06/18 07:10:18;;;;;;;;;;;;;;;15.96;100.00;99460.72;4935138;29;19950;-81
2022/06/18 07:12:54;;;;;;;;;;;;;;;15.56;100.00;99467.22;4921892;28;20351;-82
2022/06/18 07:15:24;;;;;;;;;;;;;;;15.57;100.00;99466.78;4955980;28;19926;-83
2022/06/18 07:17:53;;;;;;;;;;;;;;;16.04;100.00;99472.56;4929551;29;20414;-82
2022/06/18 07:20:49;;;;;;;;;;;;;;;16.24;100.00;99471.13;4945421;29;20020;-82
2022/06/18 07:23:19;;;;;;;;;;;;;;;16.87;100.00;99456.94;4941137;28;19926;-82
2022/06/18 07:25:47;;;;;;;;;;;;;;;16.56;100.00;99447.53;4925353;28;19926;-83
2022/06/18 07:28:38;;;;;;;;;;;;;;;17.08;100.00;99442.06;4939492;29;20006;-82
2022/06/18 07:31:05;;;;;;;;;;;;;;;16.21;100.00;99424.09;4986345;28;19926;-81
2022/06/18 07:33:35;;;;;;;;;;;;;;;16.27;100.00;99440.44;4974843;28;19977;-83
2022/06/18 07:36:02;;;;;;;;;;;;;;;16.20;100.00;99436.63;5036504;28;19924;-84
2022/06/18 07:38:29;;;;;;;;;;;;;;;16.13;100.00;99442.47;5020176;28;19932;-84
2022/06/18 07:40:57;;;;;;;;;;;;;;;16.60;100.00;99447.41;5036155;28;19925;-82
2022/06/18 07:43:27;;;;;;;;;;;;;;;16.75;100.00;99454.13;5053447;28;20010;-82
2022/06/18 07:45:54;;;;;;;;;;;;;;;16.90;100.00;99438.28;5022927;28;19929;-84
2022/06/18 07:48:21;;;;;;;;;;;;;;;16.78;100.00;99422.97;5019657;28;19947;-85
2022/06/18 07:50:48;;;;;;;;;;;;;;;16.61;100.00;99401.81;5013512;28;19932;-84
2022/06/18 07:53:17;;;;;;;;;;;;;;;16.43;100.00;99437.47;5033603;28;19928;-82
2022/06/18 07:55:45;;;;;;;;;;;;;;;15.95;100.00;99447.09;5036028;28;19925;-82
2022/06/18 07:58:13;;;;;;;;;;;;;;;15.65;100.00;99445.59;5035584;28;19947;-82
2022/06/18 08:00:40;;;;;;;;;;;;;;;15.84;100.00;99435.38;5022793;28;19931;-83
2022/06/18 08:03:07;;;;;;;;;;;;;;;15.61;100.00;99428.03;5019302;28;19925;-83
2022/06/18 08:05:35;;;;;;;;;;;;;;;16.03;100.00;99415.44;5026695;28;19932;-85
2022/06/18 08:08:03;;;;;;;;;;;;;;;16.21;100.00;99404.34;5035625;28;19932;-86
2022/06/18 08:10:46;;;;;;;;;;;;;;;16.38;100.00;99421.13;5017729;28;20178;-86
2022/06/18 08:13:13;;;;;;;;;;;;;;;16.40;100.00;99413.00;5020376;28;20024;-85
2022/06/18 08:15:43;;;;;;;;;;;;;;;16.79;100.00;99387.06;5025323;28;19932;-86
2022/06/18 08:18:10;;;;;;;;;;;;;;;16.81;100.00;99407.16;5048062;28;20010;-84
2022/06/18 08:20:54;;;;;;;;;;;;;;;16.35;100.00;99414.38;5036401;28;19968;-83
2022/06/18 08:23:21;;;;;;;;;;;;;;;15.90;100.00;99423.06;5015256;28;20027;-85
2022/06/18 08:25:48;;;;;;;;;;;;;;;15.84;100.00;99424.88;5015400;28;19932;-86
2022/06/18 08:28:16;;;;;;;;;;;;;;;15.98;100.00;99432.88;5039487;28;19925;-86
2022/06/18 08:30:43;;;;;;;;;;;;;;;15.72;100.00;99447.44;5039011;28;19929;-88
2022/06/18 08:33:10;;;;;;;;;;;;;;;15.92;100.00;99447.97;5050480;28;19974;-88
2022/06/18 08:35:38;;;;;;;;;;;;;;;15.70;100.00;99447.06;5013578;28;19991;-84
2022/06/18 08:38:07;;;;;;;;;;;;;;;15.98;100.00;99463.91;5072391;28;19925;-85
2022/06/18 08:40:46;;;;;;;;;;;;;;;16.32;100.00;99453.94;5038413;28;20012;-85
2022/06/18 08:43:32;;;;;;;;;;;;;;;16.36;100.00;99444.13;5038801;28;19925;-84
2022/06/18 08:46:02;;;;;;;;;;;;;;;16.02;100.00;99444.06;5048204;28;19947;-83
2022/06/18 08:48:50;;;;;;;;;;;;;;;16.44;100.00;99444.72;5057084;28;19947;-83
2022/06/18 08:51:18;;;;;;;;;;;;;;;16.54;100.00;99458.47;5035722;28;19929;-83
2022/06/18 08:54:05;;;;;;;;;;;;;;;17.65;100.00;99443.56;5036747;28;19933;-83
2022/06/18 08:56:41;;;;;;;;;;;;;;;18.73;100.00;99432.69;5041932;28;19925;-83
2022/06/18 08:59:16;;;;;;;;;;;;;;;19.28;100.00;99444.84;5035232;28;19925;-82
2022/06/18 09:01:49;;;;;;;;;;;;;;;18.14;100.00;99435.16;5067338;28;19925;-83
2022/06/18 09:04:46;;;;;;;;;;;;;;;18.04;100.00;99437.16;5031987;28;19925;-82
2022/06/18 09:07:17;;;;;;;;;;;;;;;17.98;100.00;99450.31;5038863;28;20326;-81
2022/06/18 09:10:13;;;;;;;;;;;;;;;18.14;100.00;99435.16;5025188;28;19933;-81
2022/06/18 09:12:46;;;;;;;;;;;;;;;17.48;100.00;99413.94;4991691;28;20574;-83
2022/06/18 09:15:19;;;;;;;;;;;;;;;17.42;100.00;99441.97;5042913;28;20016;-81
2022/06/18 09:18:01;;;;;;;;;;;;;;;16.97;100.00;99449.31;5067725;28;19925;-82
2022/06/18 09:20:51;;;;;;;;;;;;;;;16.79;100.00;99466.09;5038286;28;20494;-82
2022/06/18 09:23:25;;;;;;;;;;;;;;;16.38;100.00;99481.13;5038654;28;20028;-82
2022/06/18 09:25:54;;;;;;;;;;;;;;;16.12;100.00;99463.44;5025314;28;20016;-79
2022/06/18 09:28:24;;;;;;;;;;;;;;;16.39;100.00;99448.88;5042119;28;19925;-78
2022/06/18 09:31:12;;;;;;;;;;;;;;;16.43;100.00;99445.94;5053780;28;19925;-79
2022/06/18 09:33:48;;;;;;;;;;;;;;;16.62;100.00;99442.88;5041128;28;19925;-80
2022/06/18 09:36:21;;;;;;;;;;;;;;;16.93;100.00;99437.38;5040779;28;19929;-80
2022/06/18 09:39:02;;;;;;;;;;;;;;;16.98;100.00;99431.91;5018313;28;19925;-80
2022/06/18 09:41:31;;;;;;;;;;;;;;;17.52;100.00;99435.16;5042677;28;19932;-79
2022/06/18 09:44:18;;;;;;;;;;;;;;;18.02;100.00;99417.84;5061797;28;20390;-80
2022/06/18 09:46:56;;;;;;;;;;;;;;;18.11;100.00;99422.75;5064955;28;19933;-79
2022/06/18 09:49:23;;;;;;;;;;;;;;;18.69;100.00;99411.47;5057792;28;20566;-79
2022/06/18 09:51:56;;;;;;;;;;;;;;;19.16;100.00;99409.72;5054194;28;19932;-79
2022/06/18 09:54:28;;;;;;;;;;;;;;;19.20;100.00;99421.69;5018513;28;19924;-80
2022/06/18 09:56:58;;;;;;;;;;;;;;;18.46;100.00;99420.53;5018225;28;19968;-81
2022/06/18 09:59:28;;;;;;;;;;;;;;;18.26;100.00;99422.94;5034124;28;19931;-78
2022/06/18 10:01:56;;;;;;;;;;;;;;;18.35;100.00;99406.00;5069047;28;19935;-79
2022/06/18 10:07:21;;;;;;;;;;;;;;;17.40;100.00;99390.81;5033628;28;19931;-81
2022/06/18 10:09:53;;;;;;;;;;;;;;;17.75;100.00;99397.94;5055855;28;19971;-81
2022/06/18 10:12:25;;;;;;;;;;;;;;;17.49;100.00;99393.72;5055813;28;20598;-81
2022/06/18 10:14:54;;;;;;;;;;;;;;;17.92;100.00;99402.09;5021210;28;20346;-81
2022/06/18 10:17:47;;;;;;;;;;;;;;;17.67;100.00;99390.22;5021419;28;19931;-80
2022/06/18 10:20:33;;;;;;;;;;;;;;;17.64;100.00;99379.84;5002498;28;20372;-81
2022/06/18 10:23:09;;;;;;;;;;;;;;;17.73;100.00;99371.41;5024163;28;20287;-82
2022/06/18 10:25:42;;;;;;;;;;;;;;;17.37;100.00;99374.00;5036440;28;19925;-81
2022/06/18 10:28:21;;;;;;;;;;;;;;;17.10;100.00;99379.50;5034138;28;19925;-81
2022/06/18 10:30:54;;;;;;;;;;;;;;;17.65;100.00;99370.09;5017860;28;20012;-81
2022/06/18 10:33:42;;;;;;;;;;;;;;;17.91;100.00;99369.44;5052035;28;19924;-79
2022/06/18 10:36:13;;;;;;;;;;;;;;;17.44;100.00;99351.16;5034611;28;19929;-82
2022/06/18 10:38:59;;;;;;;;;;;;;;;17.37;100.00;99348.59;5046934;28;19925;-81
2022/06/18 10:41:31;;;;;;;;;;;;;;;17.62;100.00;99348.41;5034715;28;19936;-80
2022/06/18 10:44:04;;;;;;;;;;;;;;;17.05;100.00;99349.00;5034703;28;20062;-80
2022/06/18 10:46:31;;;;;;;;;;;;;;;17.36;100.00;99336.50;5020108;28;19948;-80
2022/06/18 10:49:03;;;;;;;;;;;;;;;17.38;100.00;99336.03;5052121;28;20023;-80
2022/06/18 10:51:43;;;;;;;;;;;;;;;17.24;100.00;99345.03;5049529;28;19925;-80
2022/06/18 10:54:10;;;;;;;;;;;;;;;17.19;100.00;99342.84;5032502;28;19932;-79
2022/06/18 10:56:45;;;;;;;;;;;;;;;16.84;100.00;99344.16;5050868;28;19932;-78
2022/06/18 10:59:12;;;;;;;;;;;;;;;17.60;100.00;99359.38;5046816;28;19925;-80
2022/06/18 11:01:46;;;;;;;;;;;;;;;17.62;100.00;99368.19;5035580;28;19925;-81
2022/06/18 11:04:25;;;;;;;;;;;;;;;17.22;100.00;99353.97;5032663;28;19924;-82
2022/06/18 11:06:54;;;;;;;;;;;;;;;17.18;100.00;99364.63;5052470;28;19974;-81
2022/06/18 11:09:23;;;;;;;;;;;;;;;17.61;100.00;99377.94;5037094;28;19947;-81
2022/06/18 11:11:55;;;;;;;;;;;;;;;17.65;100.00;99375.75;5035430;28;19925;-80
2022/06/18 11:14:22;;;;;;;;;;;;;;;17.55;100.00;99376.97;5035881;28;19968;-81
2022/06/18 11:16:55;;;;;;;;;;;;;;;17.56;100.00;99378.53;5020071;28;19925;-80
2022/06/18 11:19:28;;;;;;;;;;;;;;;17.07;100.00;99400.16;5051621;28;20283;-84
2022/06/18 11:21:55;;;;;;;;;;;;;;;17.15;100.00;99401.47;5046043;28;19924;-88
2022/06/18 11:24:33;;;;;;;;;;;;;;;17.66;100.00;99400.72;5004218;28;19924;-83
2022/06/18 11:27:03;;;;;;;;;;;;;;;18.23;100.00;99392.78;5036189;28;19925;-81
2022/06/18 11:29:42;;;;;;;;;;;;;;;18.43;100.00;99390.34;5017816;28;19978;-81
2022/06/18 11:32:21;;;;;;;;;;;;;;;18.53;100.00;99384.22;5035583;28;19925;-83
2022/06/18 11:34:49;;;;;;;;;;;;;;;18.60;100.00;99395.22;5053173;28;19925;-82
2022/06/18 11:37:21;;;;;;;;;;;;;;;18.40;100.00;99374.31;5053526;28;19935;-81
2022/06/18 11:39:55;;;;;;;;;;;;;;;18.73;100.00;99381.75;5029210;28;19960;-81
2022/06/18 11:42:36;;;;;;;;;;;;;;;18.30;100.00;99384.78;5018538;28;19925;-82
2022/06/18 11:45:15;;;;;;;;;;;;;;;17.75;100.00;99397.16;5047272;28;19924;-83
2022/06/18 11:47:49;;;;;;;;;;;;;;;17.70;100.00;99389.28;5049950;28;19925;-85
2022/06/18 11:50:23;;;;;;;;;;;;;;;17.86;100.00;99386.19;5051007;28;19933;-82
2022/06/18 11:52:51;;;;;;;;;;;;;;;18.02;100.00;99388.78;5044537;28;19925;-81
2022/06/18 11:55:35;;;;;;;;;;;;;;;18.36;100.00;99401.94;5000996;28;19925;-84
2022/06/18 11:58:05;;;;;;;;;;;;;;;17.79;100.00;99392.94;5015535;28;19932;-83
2022/06/18 12:00:40;;;;;;;;;;;;;;;18.02;100.00;99389.56;5010495;28;19932;-80
2022/06/18 12:03:19;;;;;;;;;;;;;;;17.80;100.00;99394.50;5017780;28;19975;-84
2022/06/18 12:05:50;;;;;;;;;;;;;;;18.04;100.00;99386.28;5033115;28;19933;-85
2022/06/18 12:08:19;;;;;;;;;;;;;;;18.18;100.00;99382.84;5035883;28;19929;-82
2022/06/18 12:10:58;;;;;;;;;;;;;;;17.62;100.00;99376.69;5016921;28;19986;-83
2022/06/18 12:13:35;;;;;;;;;;;;;;;17.28;100.00;99397.31;5048665;28;20023;-79
2022/06/18 12:16:02;;;;;;;;;;;;;;;17.81;100.00;99395.31;5060122;28;19935;-83
2022/06/18 12:18:48;;;;;;;;;;;;;;;17.80;100.00;99394.50;5027056;28;19924;-80
2022/06/18 12:21:18;;;;;;;;;;;;;;;16.97;100.00;99390.03;5038527;28;20007;-82
2022/06/18 12:24:20;;;;;;;;;;;;;;;17.11;100.00;99400.81;5048629;28;20409;-79
2022/06/18 12:27:01;;;;;;;;;;;;;;;17.22;100.00;99409.69;5010667;28;20433;-81
2022/06/18 12:29:40;;;;;;;;;;;;;;;17.42;100.00;99396.00;5002275;28;19932;-80
2022/06/18 12:32:30;;;;;;;;;;;;;;;17.48;100.00;99411.91;5035294;28;19925;-89
2022/06/18 12:35:08;;;;;;;;;;;;;;;17.24;100.00;99424.13;5032229;28;20409;-81
2022/06/18 12:37:58;;;;;;;;;;;;;;;17.48;100.00;99408.28;5034913;28;19924;-81
2022/06/18 12:40:35;;;;;;;;;;;;;;;17.32;100.00;99419.78;5048590;28;20327;-81
2022/06/18 12:43:15;;;;;;;;;;;;;;;17.05;100.00;99428.84;5034970;28;19944;-80
2022/06/18 12:46:42;;;;;;;;;;;;;;;16.63;100.00;99454.97;5022548;28;20333;-85
2022/06/18 12:49:56;;;;;;;;;;;;;;;16.67;100.00;99458.44;5002079;28;19935;-83
2022/06/18 12:53:16;;;;;;;;;;;;;;;17.09;100.00;99440.00;5040149;28;19966;-80
2022/06/18 12:56:01;;;;;;;;;;;;;;;16.93;100.00;99426.88;5034897;28;19928;-80
2022/06/18 12:58:31;;;;;;;;;;;;;;;16.89;100.00;99402.84;5031677;28;19938;-78
2022/06/18 13:00:58;;;;;;;;;;;;;;;16.96;100.00;99385.66;5056839;28;19939;-79
2022/06/18 13:03:44;;;;;;;;;;;;;;;16.87;100.00;99366.63;5033002;28;19924;-80
2022/06/18 13:06:20;;;;;;;;;;;;;;;16.89;100.00;99371.81;5051261;28;19924;-79
2022/06/18 13:09:06;;;;;;;;;;;;;;;16.70;100.00;99389.81;5044218;28;20011;-79
2022/06/18 13:11:36;;;;;;;;;;;;;;;17.43;100.00;99404.03;5050922;28;19987;-78
2022/06/18 13:14:07;;;;;;;;;;;;;;;17.36;100.00;99404.28;5032591;28;19925;-78
2022/06/18 13:16:45;;;;;;;;;;;;;;;17.45;100.00;99400.75;5017767;28;19994;-78
2022/06/18 13:19:42;;;;;;;;;;;;;;;16.77;100.00;99412.13;5014969;28;19971;-77
2022/06/18 13:22:18;;;;;;;;;;;;;;;17.06;100.00;99381.63;5009606;28;20020;-77